createdAt,value
2024-04-06T00:01:29.362Z,13.15
2024-04-06T00:03:41.431Z,13.21
2024-04-06T00:05:53.541Z,13.27
2024-04-06T00:08:12.942Z,13.25
2024-04-06T00:10:17.679Z,13.22
2024-04-06T00:12:29.745Z,13.20
2024-04-06T00:14:41.855Z,13.14
2024-04-06T00:16:53.945Z,13.03
2024-04-06T00:19:05.980Z,12.95
2024-04-06T00:21:18.046Z,12.84
2024-04-06T00:23:30.164Z,12.71
2024-04-06T00:25:42.238Z,12.63
2024-04-06T00:27:54.354Z,12.52
2024-04-06T00:30:06.441Z,12.45
2024-04-06T00:32:18.476Z,12.33
2024-04-06T00:34:30.565Z,12.26
2024-04-06T00:36:43.631Z,12.19
2024-04-06T00:38:55.744Z,12.09
2024-04-06T00:41:07.790Z,12.02
2024-04-06T00:43:19.873Z,11.94
2024-04-06T00:45:31.942Z,11.89
2024-04-06T00:47:45.011Z,11.75
2024-04-06T00:49:57.141Z,11.70
2024-04-06T00:52:09.191Z,11.65
2024-04-06T00:54:21.259Z,11.61
2024-04-06T00:56:33.353Z,11.56
2024-04-06T00:58:45.416Z,11.56
2024-04-06T01:00:57.557Z,11.52
2024-04-06T01:03:09.605Z,11.49
2024-04-06T01:05:21.729Z,11.43
2024-04-06T01:07:33.769Z,11.41
2024-04-06T01:09:45.855Z,11.36
2024-04-06T01:11:57.949Z,11.38
2024-04-06T01:14:10.031Z,11.36
2024-04-06T01:16:22.101Z,11.31
2024-04-06T01:18:34.180Z,11.31
2024-04-06T01:20:46.262Z,11.24
2024-04-06T01:22:58.360Z,11.24
2024-04-06T01:25:10.425Z,11.19
2024-04-06T01:27:22.494Z,11.17
2024-04-06T01:29:34.595Z,11.14
2024-04-06T01:31:46.672Z,11.13
2024-04-06T01:33:58.769Z,11.11
2024-04-06T01:36:10.842Z,11.10
2024-04-06T01:38:22.905Z,11.07
2024-04-06T01:40:34.979Z,11.07
2024-04-06T01:42:47.057Z,11.06
2024-04-06T01:44:59.165Z,11.06
2024-04-06T01:47:11.212Z,11.03
2024-04-06T01:49:23.282Z,11.02
2024-04-06T01:51:35.380Z,11.02
2024-04-06T01:53:47.455Z,11.02
2024-04-06T01:55:59.565Z,11.03
2024-04-06T01:58:11.626Z,11.02
2024-04-06T02:00:23.707Z,11.02
2024-04-06T02:02:35.800Z,11.06
2024-04-06T02:04:47.868Z,11.07
2024-04-06T02:06:59.954Z,11.06
2024-04-06T02:09:12.034Z,11.03
2024-04-06T02:11:24.151Z,10.99
2024-04-06T02:13:36.183Z,10.99
2024-04-06T02:15:48.248Z,10.96
2024-04-06T02:18:00.366Z,10.95
2024-04-06T02:20:12.422Z,10.94
2024-04-06T02:22:24.537Z,10.89
2024-04-06T02:24:36.599Z,10.91
2024-04-06T02:26:48.684Z,10.89
2024-04-06T02:29:00.801Z,10.89
2024-04-06T02:31:12.883Z,10.88
2024-04-06T02:33:24.949Z,10.86
2024-04-06T02:35:37.020Z,10.88
2024-04-06T02:37:49.106Z,10.89
2024-04-06T02:40:01.217Z,10.91
2024-04-06T02:42:14.264Z,10.91
2024-04-06T02:44:26.417Z,10.88
2024-04-06T02:46:38.434Z,10.86
2024-04-06T02:48:50.497Z,10.81
2024-04-06T02:51:02.610Z,10.80
2024-04-06T02:53:14.665Z,10.81
2024-04-06T02:55:26.745Z,10.81
2024-04-06T02:57:38.836Z,10.81
2024-04-06T02:59:50.917Z,10.81
2024-04-06T03:02:03.009Z,10.81
2024-04-06T03:04:15.065Z,10.77
2024-04-06T03:06:27.146Z,10.76
2024-04-06T03:08:39.358Z,10.73
2024-04-06T03:10:51.334Z,10.71
2024-04-06T03:13:03.420Z,10.73
2024-04-06T03:15:15.487Z,10.70
2024-04-06T03:17:27.618Z,10.65
2024-04-06T03:19:39.634Z,10.68
2024-04-06T03:21:51.702Z,10.70
2024-04-06T03:24:03.827Z,10.70
2024-04-06T03:26:15.870Z,10.65
2024-04-06T03:28:27.956Z,10.62
2024-04-06T03:30:40.024Z,10.62
2024-04-06T03:32:52.115Z,10.60
2024-04-06T03:35:04.232Z,10.59
2024-04-06T03:37:16.295Z,10.56
2024-04-06T03:39:28.389Z,10.58
2024-04-06T03:41:40.486Z,10.55
2024-04-06T03:43:52.513Z,10.52
2024-04-06T03:46:04.619Z,10.51
2024-04-06T03:48:16.664Z,10.46
2024-04-06T03:50:28.742Z,10.40
2024-04-06T03:52:40.826Z,10.40
2024-04-06T03:54:52.900Z,10.40
2024-04-06T03:57:04.999Z,10.37
2024-04-06T03:59:17.083Z,10.34
2024-04-06T04:01:29.164Z,10.24
2024-04-06T04:03:41.230Z,10.22
2024-04-06T04:05:53.329Z,10.17
2024-04-06T04:08:05.457Z,10.09
2024-04-06T04:10:17.509Z,10.03
2024-04-06T04:12:29.591Z,10.01
2024-04-06T04:14:41.684Z,9.97
2024-04-06T04:16:53.785Z,9.99
2024-04-06T04:19:05.894Z,9.96
2024-04-06T04:21:17.937Z,10.00
2024-04-06T04:23:30.013Z,9.99
2024-04-06T04:25:42.085Z,9.97
2024-04-06T04:27:54.165Z,9.97
2024-04-06T04:30:06.276Z,9.94
2024-04-06T04:32:18.353Z,9.96
2024-04-06T04:34:30.452Z,9.94
2024-04-06T04:36:42.541Z,9.88
2024-04-06T04:38:54.613Z,9.82
2024-04-06T04:41:06.708Z,9.78
2024-04-06T04:43:18.761Z,9.71
2024-04-06T04:45:30.839Z,9.66
2024-04-06T04:47:42.938Z,9.61
2024-04-06T04:49:54.994Z,9.63
2024-04-06T04:52:07.101Z,9.64
2024-04-06T04:54:19.160Z,9.67
2024-04-06T04:56:31.270Z,9.68
2024-04-06T04:58:43.349Z,9.70
2024-04-06T05:00:55.458Z,9.75
2024-04-06T05:03:07.556Z,9.81
2024-04-06T05:05:19.609Z,9.88
2024-04-06T05:07:31.690Z,9.99
2024-04-06T05:09:43.825Z,10.09
2024-04-06T05:11:55.857Z,10.17
2024-04-06T05:14:08.942Z,10.21
2024-04-06T05:16:21.013Z,10.32
2024-04-06T05:18:33.086Z,10.42
2024-04-06T05:20:45.154Z,10.53
2024-04-06T05:22:57.244Z,10.66
2024-04-06T05:25:09.372Z,10.83
2024-04-06T05:27:21.456Z,10.96
2024-04-06T05:29:33.552Z,11.07
2024-04-06T05:31:45.641Z,11.16
2024-04-06T05:33:58.720Z,11.25
2024-04-06T05:36:10.835Z,11.35
2024-04-06T05:38:23.889Z,11.46
2024-04-06T05:40:35.995Z,11.68
2024-04-06T05:42:48.077Z,11.82
2024-04-06T05:45:00.190Z,11.90
2024-04-06T05:47:12.249Z,11.97
2024-04-06T05:49:24.321Z,12.06
2024-04-06T05:51:36.396Z,12.13
2024-04-06T05:53:49.464Z,12.20
2024-04-06T05:56:01.562Z,12.26
2024-04-06T05:58:15.165Z,12.29
2024-04-06T06:00:27.225Z,12.39
2024-04-06T06:02:39.328Z,12.51
2024-04-06T06:04:51.391Z,12.63
2024-04-06T06:07:03.469Z,12.70
2024-04-06T06:09:15.580Z,12.78
2024-04-06T06:11:27.653Z,12.92
2024-04-06T06:13:39.784Z,13.09
2024-04-06T06:15:51.900Z,13.20
2024-04-06T06:18:04.024Z,13.30
2024-04-06T06:20:16.111Z,13.46
2024-04-06T06:22:28.136Z,13.49
2024-04-06T06:24:40.190Z,13.56
2024-04-06T06:26:52.281Z,13.61
2024-04-06T06:29:04.363Z,13.69
2024-04-06T06:31:16.479Z,13.84
2024-04-06T06:33:28.534Z,13.88
2024-04-06T06:37:57.016Z,13.96
2024-04-06T06:42:17.879Z,14.16
2024-04-06T06:44:31.439Z,14.31
2024-04-06T06:46:43.525Z,14.35
2024-04-06T06:48:55.611Z,14.49
2024-04-06T06:51:07.725Z,14.62
2024-04-06T06:53:20.814Z,14.74
2024-04-06T06:55:32.882Z,14.88
2024-04-06T06:57:44.982Z,15.03
2024-04-06T07:02:10.663Z,15.46
2024-04-06T07:04:23.764Z,15.61
2024-04-06T07:09:02.469Z,15.70
2024-04-06T07:09:48.923Z,15.74
2024-04-06T07:11:59.985Z,15.88
2024-04-06T07:14:12.063Z,16.03
2024-04-06T07:16:24.155Z,16.34
2024-04-06T07:18:36.285Z,16.52
2024-04-06T07:20:48.345Z,16.92
2024-04-06T07:23:00.404Z,17.17
2024-04-06T07:25:12.540Z,16.90
2024-04-06T07:27:24.550Z,17.10
2024-04-06T07:29:36.646Z,17.28
2024-04-06T07:31:49.718Z,17.03
2024-04-06T07:34:01.772Z,16.81
2024-04-06T07:36:13.854Z,17.20
2024-04-06T07:38:25.944Z,17.54
2024-04-06T07:40:38.026Z,17.57
2024-04-06T07:42:50.121Z,17.76
2024-04-06T07:45:02.193Z,17.88
2024-04-06T07:47:14.290Z,17.66
2024-04-06T07:49:26.345Z,17.51
2024-04-06T07:51:38.459Z,17.59
2024-04-06T07:53:50.533Z,17.76
2024-04-06T07:56:02.585Z,17.78
2024-04-06T07:58:14.684Z,17.89
2024-04-06T08:00:27.048Z,18.12
2024-04-06T08:02:39.157Z,18.36
2024-04-06T08:04:51.258Z,18.65
2024-04-06T08:07:06.479Z,18.86
2024-04-06T08:09:16.380Z,19.33
2024-04-06T08:11:28.472Z,19.68
2024-04-06T08:13:40.535Z,19.72
2024-04-06T08:15:52.634Z,19.75
2024-04-06T08:18:04.691Z,19.25
2024-04-06T08:20:16.789Z,18.95
2024-04-06T08:22:28.854Z,19.31
2024-04-06T08:24:40.956Z,19.42
2024-04-06T08:26:53.059Z,19.58
2024-04-06T08:29:06.090Z,19.39
2024-04-06T08:31:18.230Z,19.51
2024-04-06T08:33:30.261Z,19.76
2024-04-06T08:35:42.349Z,19.87
2024-04-06T08:37:54.454Z,19.98
2024-04-06T08:40:06.525Z,20.06
2024-04-06T08:42:18.579Z,20.28
2024-04-06T08:44:30.633Z,20.59
2024-04-06T08:46:42.715Z,20.50
2024-04-06T08:48:55.807Z,20.58
2024-04-06T08:51:07.859Z,20.28
2024-04-06T08:53:20.960Z,20.56
2024-04-06T08:55:33.013Z,20.84
2024-04-06T08:57:45.090Z,20.69
2024-04-06T08:59:57.202Z,21.05
2024-04-06T09:02:09.258Z,21.41
2024-04-06T09:04:21.336Z,21.76
2024-04-06T09:06:33.405Z,21.85
2024-04-06T09:08:45.470Z,22.31
2024-04-06T09:10:57.596Z,22.46
2024-04-06T09:13:09.698Z,22.65
2024-04-06T09:15:21.752Z,22.22
2024-04-06T09:17:33.833Z,21.75
2024-04-06T09:19:45.908Z,22.07
2024-04-06T09:21:58.015Z,22.31
2024-04-06T09:24:10.083Z,22.34
2024-04-06T09:26:25.893Z,22.28
2024-04-06T09:28:34.230Z,22.64
2024-04-06T09:30:46.290Z,22.90
2024-04-06T09:32:58.376Z,22.50
2024-04-06T09:35:10.444Z,22.56
2024-04-06T09:37:22.542Z,22.49
2024-04-06T09:39:34.627Z,22.60
2024-04-06T09:41:46.703Z,22.82
2024-04-06T09:43:58.798Z,22.86
2024-04-06T09:46:10.891Z,23.32
2024-04-06T09:48:22.959Z,23.04
2024-04-06T09:50:35.018Z,23.15
2024-04-06T09:52:47.130Z,22.57
2024-04-06T09:54:59.216Z,22.19
2024-04-06T09:57:11.254Z,21.54
2024-04-06T09:59:23.330Z,20.93
2024-04-06T10:01:35.423Z,21.29
2024-04-06T10:03:47.492Z,21.17
2024-04-06T10:05:59.587Z,20.84
2024-04-06T10:08:11.661Z,21.26
2024-04-06T10:10:23.721Z,21.74
2024-04-06T10:12:36.804Z,21.21
2024-04-06T10:14:48.899Z,21.13
2024-04-06T10:17:00.981Z,21.30
2024-04-06T10:19:13.052Z,22.06
2024-04-06T10:21:26.102Z,22.53
2024-04-06T10:23:38.189Z,22.99
2024-04-06T10:25:50.263Z,23.14
2024-04-06T10:28:02.360Z,23.87
2024-04-06T10:30:15.402Z,24.00
2024-04-06T10:32:27.515Z,24.16
2024-04-06T10:34:46.123Z,23.98
2024-04-06T10:36:52.618Z,23.67
2024-04-06T10:39:04.730Z,24.17
2024-04-06T10:41:16.776Z,24.20
2024-04-06T10:43:28.853Z,24.14
2024-04-06T10:45:41.921Z,23.89
2024-04-06T10:47:56.008Z,23.92
2024-04-06T10:50:08.393Z,24.02
2024-04-06T10:52:20.437Z,23.61
2024-04-06T10:54:33.119Z,23.60
2024-04-06T10:56:44.584Z,23.98
2024-04-06T10:58:56.680Z,24.14
2024-04-06T11:01:08.786Z,23.68
2024-04-06T11:03:20.840Z,22.84
2024-04-06T11:05:32.905Z,22.71
2024-04-06T11:07:45.964Z,23.19
2024-04-06T11:09:58.076Z,23.40
2024-04-06T11:12:11.161Z,23.46
2024-04-06T11:14:23.223Z,23.72
2024-04-06T11:16:35.294Z,24.10
2024-04-06T11:18:47.384Z,24.69
2024-04-06T11:20:59.470Z,24.83
2024-04-06T11:23:11.573Z,25.34
2024-04-06T11:25:23.661Z,25.97
2024-04-06T11:27:35.676Z,26.18
2024-04-06T11:29:49.194Z,26.28
2024-04-06T11:31:59.828Z,25.86
2024-04-06T11:34:11.940Z,25.43
2024-04-06T11:36:23.978Z,25.71
2024-04-06T11:38:36.065Z,25.30
2024-04-06T11:40:48.172Z,25.32
2024-04-06T11:43:00.562Z,25.02
2024-04-06T11:45:12.646Z,24.73
2024-04-06T11:47:24.704Z,24.17
2024-04-06T11:49:36.795Z,23.71
2024-04-06T11:51:48.860Z,23.52
2024-04-06T11:54:00.932Z,23.70
2024-04-06T11:56:14.027Z,23.79
2024-04-06T11:58:26.072Z,23.75
2024-04-06T12:00:38.147Z,23.62
2024-04-06T12:02:50.223Z,23.65
2024-04-06T12:05:02.301Z,23.71
2024-04-06T12:07:14.440Z,23.61
2024-04-06T12:09:26.441Z,23.26
2024-04-06T12:11:39.835Z,23.08
2024-04-06T12:13:51.921Z,23.15
2024-04-06T12:16:04.006Z,23.15
2024-04-06T12:18:16.114Z,23.38
2024-04-06T12:20:28.167Z,23.46
2024-04-06T12:22:40.244Z,23.70
2024-04-06T12:24:52.362Z,23.75
2024-04-06T12:27:04.445Z,23.71
2024-04-06T12:29:16.561Z,23.75
2024-04-06T12:31:28.583Z,23.68
2024-04-06T12:33:40.676Z,23.50
2024-04-06T12:35:52.754Z,23.55
2024-04-06T12:38:04.853Z,23.52
2024-04-06T12:40:16.971Z,23.58
2024-04-06T12:42:28.988Z,23.68
2024-04-06T12:44:41.090Z,23.83
2024-04-06T12:46:53.170Z,23.87
2024-04-06T12:49:06.276Z,23.86
2024-04-06T12:51:18.361Z,23.98
2024-04-06T12:53:30.417Z,24.02
2024-04-06T12:55:43.478Z,23.94
2024-04-06T12:57:55.558Z,23.92
2024-04-06T13:00:08.623Z,23.90
2024-04-06T13:02:23.250Z,23.82
2024-04-06T13:04:32.791Z,23.83
2024-04-06T13:06:45.884Z,23.87
2024-04-06T13:08:57.960Z,23.87
2024-04-06T13:11:10.026Z,23.89
2024-04-06T13:13:23.137Z,23.97
2024-04-06T13:15:35.188Z,23.94
2024-04-06T13:17:48.250Z,24.02
2024-04-06T13:20:00.318Z,24.01
2024-04-06T13:22:13.402Z,23.80
2024-04-06T13:24:25.490Z,23.60
2024-04-06T13:26:37.551Z,23.32
2024-04-06T13:28:49.628Z,23.32
2024-04-06T13:31:01.715Z,23.43
2024-04-06T13:33:14.791Z,23.61
2024-04-06T13:35:26.884Z,23.76
2024-04-06T13:37:39.933Z,23.89
2024-04-06T13:39:52.021Z,23.86
2024-04-06T13:42:04.088Z,23.94
2024-04-06T13:44:16.166Z,23.94
2024-04-06T13:46:28.267Z,23.98
2024-04-06T13:48:40.348Z,23.92
2024-04-06T13:50:52.416Z,23.94
2024-04-06T13:53:04.495Z,23.94
2024-04-06T13:55:16.622Z,23.86
2024-04-06T13:57:28.666Z,23.83
2024-04-06T13:59:40.730Z,23.82
2024-04-06T14:01:52.800Z,23.87
2024-04-06T14:04:04.885Z,23.82
2024-04-06T14:06:16.946Z,23.85
2024-04-06T14:08:29.063Z,23.86
2024-04-06T14:10:41.126Z,23.83
2024-04-06T14:12:53.206Z,23.82
2024-04-06T14:15:06.260Z,23.79
2024-04-06T14:17:18.359Z,23.75
2024-04-06T14:19:31.432Z,23.72
2024-04-06T14:21:43.510Z,23.77
2024-04-06T14:23:55.575Z,23.76
2024-04-06T14:26:07.646Z,23.77
2024-04-06T14:28:19.750Z,23.85
2024-04-06T14:30:31.862Z,23.82
2024-04-06T14:32:43.896Z,23.77
2024-04-06T14:34:55.985Z,23.86
2024-04-06T14:37:08.059Z,24.02
2024-04-06T14:39:20.141Z,24.05
2024-04-06T14:41:32.240Z,23.94
2024-04-06T14:43:44.383Z,23.83
2024-04-06T14:45:56.399Z,23.85
2024-04-06T14:48:08.479Z,24.04
2024-04-06T14:50:20.557Z,24.17
2024-04-06T14:52:33.671Z,24.12
2024-04-06T14:54:45.715Z,24.02
2024-04-06T14:56:57.826Z,23.98
2024-04-06T14:59:10.015Z,24.01
2024-04-06T15:01:22.003Z,23.95
2024-04-06T15:03:34.102Z,23.95
2024-04-06T15:05:46.157Z,24.08
2024-04-06T15:07:58.246Z,24.04
2024-04-06T15:10:10.313Z,24.07
2024-04-06T15:12:22.395Z,24.13
2024-04-06T15:14:34.511Z,24.07
2024-04-06T15:16:46.572Z,24.05
2024-04-06T15:18:58.657Z,24.04
2024-04-06T15:21:10.732Z,24.01
2024-04-06T15:23:22.814Z,24.00
2024-04-06T15:25:34.924Z,24.02
2024-04-06T15:27:47.002Z,24.04
2024-04-06T15:30:00.053Z,24.08
2024-04-06T15:32:12.126Z,24.19
2024-04-06T15:34:25.186Z,24.22
2024-04-06T15:36:38.292Z,24.14
2024-04-06T15:38:50.334Z,24.20
2024-04-06T15:41:02.407Z,24.22
2024-04-06T15:43:16.910Z,24.16
2024-04-06T15:45:26.568Z,24.04
2024-04-06T15:47:38.677Z,23.90
2024-04-06T15:49:50.735Z,23.79
2024-04-06T15:52:02.828Z,23.82
2024-04-06T15:54:14.881Z,23.85
2024-04-06T15:56:26.951Z,23.71
2024-04-06T15:58:39.094Z,23.76
2024-04-06T16:00:51.108Z,23.79
2024-04-06T16:03:03.213Z,23.52
2024-04-06T16:05:15.287Z,23.34
2024-04-06T16:07:27.395Z,23.19
2024-04-06T16:09:39.502Z,22.99
2024-04-06T16:11:51.554Z,22.84
2024-04-06T16:14:03.638Z,22.60
2024-04-06T16:16:15.700Z,22.44
2024-04-06T16:18:28.763Z,22.28
2024-04-06T16:20:40.885Z,22.16
2024-04-06T16:22:53.928Z,22.09
2024-04-06T16:25:06.008Z,22.07
2024-04-06T16:27:19.086Z,22.14
2024-04-06T16:29:31.162Z,22.32
2024-04-06T16:31:43.253Z,22.54
2024-04-06T16:33:55.328Z,22.74
2024-04-06T16:36:07.415Z,22.87
2024-04-06T16:38:20.458Z,22.92
2024-04-06T16:40:32.567Z,22.90
2024-04-06T16:42:44.643Z,22.77
2024-04-06T16:44:56.713Z,22.60
2024-04-06T16:47:12.321Z,22.38
2024-04-06T16:49:24.423Z,22.20
2024-04-06T16:51:36.455Z,22.02
2024-04-06T16:53:48.558Z,21.83
2024-04-06T16:56:00.604Z,21.63
2024-04-06T16:58:12.692Z,21.45
2024-04-06T17:00:24.767Z,21.27
2024-04-06T17:02:37.842Z,21.09
2024-04-06T17:04:49.929Z,20.87
2024-04-06T17:07:01.990Z,20.76
2024-04-06T17:09:14.072Z,20.58
2024-04-06T17:11:27.226Z,20.43
2024-04-06T17:13:39.220Z,20.30
2024-04-06T17:15:52.831Z,20.15
2024-04-06T17:18:04.883Z,19.98
2024-04-06T17:20:17.979Z,19.83
2024-04-06T17:22:36.050Z,19.73
2024-04-06T17:24:49.659Z,19.63
2024-04-06T17:27:01.761Z,19.55
2024-04-06T17:29:13.807Z,19.46
2024-04-06T17:31:25.925Z,19.32
2024-04-06T17:33:37.999Z,19.21
2024-04-06T17:35:50.069Z,19.08
2024-04-06T17:38:02.179Z,18.99
2024-04-06T17:40:15.207Z,18.87
2024-04-06T17:42:28.811Z,18.82
2024-04-06T17:44:44.407Z,18.72
2024-04-06T17:46:56.505Z,18.61
2024-04-06T17:49:10.090Z,18.57
2024-04-06T17:51:23.135Z,18.50
2024-04-06T17:53:35.233Z,18.43
2024-04-06T17:55:47.317Z,18.36
2024-04-06T17:57:59.725Z,18.39
2024-04-06T18:00:13.335Z,18.34
2024-04-06T18:02:25.375Z,18.25
2024-04-06T18:04:37.463Z,18.19
2024-04-06T18:06:51.073Z,18.12
2024-04-06T18:09:03.149Z,18.06
2024-04-06T18:11:16.258Z,17.97
2024-04-06T18:13:28.313Z,17.92
2024-04-06T18:15:41.369Z,17.87
2024-04-06T18:17:53.461Z,17.78
2024-04-06T18:20:05.560Z,17.66
2024-04-06T18:22:19.192Z,17.54
2024-04-06T18:24:31.252Z,17.47
2024-04-06T18:26:43.313Z,17.43
2024-04-06T18:28:56.941Z,17.40
2024-04-06T18:31:10.020Z,17.38
2024-04-06T18:33:23.633Z,17.29
2024-04-06T18:35:37.194Z,17.22
2024-04-06T18:37:50.799Z,17.11
2024-04-06T18:40:08.896Z,17.00
2024-04-06T18:42:22.583Z,16.90
2024-04-06T18:44:34.579Z,16.80
2024-04-06T18:46:46.637Z,16.71
2024-04-06T18:48:58.725Z,16.59
2024-04-06T18:51:10.785Z,16.48
2024-04-06T18:53:22.883Z,16.42
2024-04-06T18:55:35.021Z,16.37
2024-04-06T18:59:04.525Z,16.26
2024-04-06T19:01:28.097Z,16.23
2024-04-06T19:03:28.622Z,16.20
2024-04-06T19:05:41.682Z,16.12
2024-04-06T19:07:53.820Z,16.07
2024-04-06T19:10:05.877Z,16.04
2024-04-06T19:12:18.014Z,16.00
2024-04-06T19:14:31.042Z,15.92
2024-04-06T19:16:43.117Z,15.88
2024-04-06T19:18:55.234Z,15.79
2024-04-06T19:21:07.301Z,15.72
2024-04-06T19:23:19.403Z,15.66
2024-04-06T19:25:35.026Z,15.61
2024-04-06T19:27:47.070Z,15.60
2024-04-06T19:30:00.821Z,15.56
2024-04-06T19:32:12.740Z,15.48
2024-04-06T19:34:24.883Z,15.45
2024-04-06T19:36:36.931Z,15.39
2024-04-06T19:38:49.007Z,15.35
2024-04-06T19:41:01.085Z,15.30
2024-04-06T19:43:13.176Z,15.30
2024-04-06T19:45:26.272Z,15.33
2024-04-06T19:47:38.347Z,15.54
2024-04-06T19:49:51.427Z,15.60
2024-04-06T19:52:03.498Z,15.59
2024-04-06T19:54:15.574Z,15.56
2024-04-06T19:56:27.683Z,15.51
2024-04-06T19:58:40.722Z,15.46
2024-04-06T20:00:52.807Z,15.45
2024-04-06T20:03:05.875Z,15.39
2024-04-06T20:05:17.967Z,15.35
2024-04-06T20:07:31.095Z,15.28
2024-04-06T20:09:44.392Z,15.26
2024-04-06T20:11:56.508Z,15.21
2024-04-06T20:14:08.711Z,15.15
2024-04-06T20:16:20.675Z,15.05
2024-04-06T20:18:33.762Z,14.99
2024-04-06T20:20:45.818Z,14.93
2024-04-06T20:22:57.920Z,14.88
2024-04-06T20:25:10.974Z,14.84
2024-04-06T20:27:23.065Z,14.78
2024-04-06T20:29:35.154Z,14.75
2024-04-06T20:31:48.212Z,14.69
2024-04-06T20:34:00.285Z,14.67
2024-04-06T20:36:12.373Z,14.61
2024-04-06T20:38:24.459Z,14.56
2024-04-06T20:40:36.590Z,14.52
2024-04-06T20:42:48.612Z,14.50
2024-04-06T20:45:00.752Z,14.46
2024-04-06T20:47:12.770Z,14.39
2024-04-06T20:49:24.855Z,14.37
2024-04-06T20:51:36.955Z,14.32
2024-04-06T20:53:49.015Z,14.28
2024-04-06T20:56:01.125Z,14.27
2024-04-06T20:58:13.186Z,14.25
2024-04-06T21:00:25.263Z,14.24
2024-04-06T21:02:37.376Z,14.24
2024-04-06T21:04:49.434Z,14.27
2024-04-06T21:07:01.829Z,14.27
2024-04-06T21:09:13.917Z,14.24
2024-04-06T21:11:25.997Z,14.20
2024-04-06T21:13:38.155Z,14.19
2024-04-06T21:15:51.148Z,14.19
2024-04-06T21:18:03.228Z,14.14
2024-04-06T21:20:16.294Z,14.12
2024-04-06T21:22:28.366Z,14.12
2024-04-06T21:24:40.480Z,14.12
2024-04-06T21:26:52.563Z,14.13
2024-04-06T21:29:04.723Z,14.16
2024-04-06T21:31:16.717Z,14.28
2024-04-06T21:33:28.789Z,14.27
2024-04-06T21:35:40.891Z,14.28
2024-04-06T21:37:53.290Z,14.28
2024-04-06T21:40:05.336Z,14.28
2024-04-06T21:42:17.408Z,14.37
2024-04-06T21:44:29.511Z,14.44
2024-04-06T21:46:41.624Z,14.42
2024-04-06T21:48:53.680Z,14.38
2024-04-06T21:51:05.748Z,14.37
2024-04-06T21:53:17.821Z,14.35
2024-04-06T21:55:29.921Z,14.31
2024-04-06T21:57:42.020Z,14.34
2024-04-06T21:59:54.072Z,14.38
2024-04-06T22:02:08.935Z,14.38
2024-04-06T22:04:18.235Z,14.42
2024-04-06T22:06:30.313Z,14.39
2024-04-06T22:08:42.419Z,14.34
2024-04-06T22:10:55.474Z,14.37
2024-04-06T22:13:07.548Z,14.34
2024-04-06T22:15:19.622Z,14.27
2024-04-06T22:17:31.702Z,14.17
2024-04-06T22:19:43.838Z,14.07
2024-04-06T22:21:55.890Z,14.02
2024-04-06T22:24:07.976Z,13.98
2024-04-06T22:26:20.049Z,13.91
2024-04-06T22:28:32.160Z,13.88
2024-04-06T22:30:44.220Z,13.88
2024-04-06T22:32:56.303Z,13.80
2024-04-06T22:35:08.371Z,13.73
2024-04-06T22:37:20.447Z,13.65
2024-04-06T22:39:32.536Z,13.63
2024-04-06T22:41:44.654Z,13.69
2024-04-06T22:43:56.722Z,13.67
2024-04-06T22:46:08.900Z,13.62
2024-04-06T22:48:20.925Z,13.56
2024-04-06T22:50:33.001Z,13.49
2024-04-06T22:52:45.149Z,13.46
2024-04-06T22:54:57.164Z,13.41
2024-04-06T22:57:09.226Z,13.33
2024-04-06T22:59:21.318Z,13.32
2024-04-06T23:01:33.387Z,13.29
2024-04-06T23:03:45.501Z,13.24
2024-04-06T23:05:57.544Z,13.18
2024-04-06T23:08:09.647Z,13.12
2024-04-06T23:10:21.909Z,13.12
2024-04-06T23:12:33.803Z,13.06
2024-04-06T23:14:46.895Z,13.06
2024-04-06T23:16:58.941Z,12.99
2024-04-06T23:19:12.007Z,12.96
2024-04-06T23:21:24.100Z,12.93
2024-04-06T23:23:36.198Z,12.93
2024-04-06T23:25:48.291Z,12.88
2024-04-06T23:28:01.344Z,12.85
2024-04-06T23:30:13.425Z,12.78
2024-04-06T23:32:25.505Z,12.74
2024-04-06T23:34:37.603Z,12.70
2024-04-06T23:36:49.687Z,12.69
2024-04-06T23:39:01.772Z,12.64
2024-04-06T23:41:13.821Z,12.63
2024-04-06T23:43:25.898Z,12.60
2024-04-06T23:45:37.962Z,12.49
2024-04-06T23:47:50.077Z,12.46
2024-04-06T23:50:02.136Z,12.46
2024-04-06T23:51:02.122Z,12.44
2024-04-06T23:53:14.233Z,12.44
2024-04-06T23:55:26.290Z,12.38
2024-04-06T23:57:38.367Z,12.37
2024-04-06T23:59:50.448Z,12.33
